createdAt,value
2022-10-14T00:01:23.434Z,2.32
2022-10-14T00:06:29.877Z,2.22
2022-10-14T00:11:50.783Z,1.98
2022-10-14T00:17:11.421Z,1.97
2022-10-14T00:22:14.118Z,1.96
2022-10-14T00:27:16.191Z,2.05
2022-10-14T00:32:18.915Z,1.90
2022-10-14T00:37:21.360Z,1.72
2022-10-14T00:42:23.613Z,1.74
2022-10-14T00:47:25.792Z,1.81
2022-10-14T00:52:28.499Z,1.66
2022-10-14T00:57:31.023Z,1.73
2022-10-14T01:02:33.264Z,1.72
2022-10-14T01:08:30.955Z,1.68
2022-10-14T01:13:37.685Z,1.32
2022-10-14T01:18:58.472Z,1.67
2022-10-14T01:24:09.616Z,1.57
2022-10-14T01:29:36.419Z,1.48
2022-10-14T01:34:48.891Z,1.06
2022-10-14T01:40:01.108Z,1.28
2022-10-14T01:45:24.254Z,0.84
2022-10-14T01:50:28.227Z,1.01
2022-10-14T01:55:36.232Z,1.04
2022-10-14T02:00:38.622Z,0.60
2022-10-14T02:05:53.575Z,0.91
2022-10-14T02:11:06.164Z,1.00
2022-10-14T02:16:41.168Z,0.98
2022-10-14T02:21:47.220Z,0.87
2022-10-14T02:27:15.622Z,0.69
2022-10-14T02:32:20.310Z,0.17
2022-10-14T02:37:26.430Z,0.40
2022-10-14T02:42:29.217Z,0.36
2022-10-14T02:47:50.106Z,0.26
2022-10-14T02:52:52.306Z,0.28
2022-10-14T02:58:14.733Z,0.23
2022-10-14T03:03:16.992Z,0.19
2022-10-14T03:08:19.209Z,0.22
2022-10-14T03:13:22.262Z,0.20
2022-10-14T03:18:25.420Z,-0.01
2022-10-14T03:23:33.076Z,0.03
2022-10-14T03:28:35.316Z,0.04
2022-10-14T03:34:25.153Z,-0.02
2022-10-14T03:39:37.626Z,-0.23
2022-10-14T03:45:00.268Z,-0.13
2022-10-14T03:50:06.504Z,0.13
2022-10-14T03:55:18.079Z,-0.57
2022-10-14T04:00:23.061Z,-0.13
2022-10-14T04:05:54.774Z,-0.12
2022-10-14T04:11:00.370Z,-0.49
2022-10-14T04:16:08.425Z,-0.19
2022-10-14T04:21:33.435Z,-0.05
2022-10-14T04:26:35.860Z,-0.38
2022-10-14T04:31:39.385Z,-0.28
2022-10-14T04:36:41.693Z,-0.17
2022-10-14T04:41:57.816Z,-0.27
2022-10-14T04:46:59.981Z,-0.32
2022-10-14T04:52:03.311Z,-0.32
2022-10-14T04:57:16.225Z,-0.37
2022-10-14T05:02:22.869Z,-0.28
2022-10-14T05:07:31.424Z,-0.36
2022-10-14T05:12:44.021Z,-0.18
2022-10-14T05:17:46.304Z,-0.32
2022-10-14T05:22:51.783Z,-0.22
2022-10-14T05:27:54.169Z,-0.21
2022-10-14T05:32:57.276Z,-0.09
2022-10-14T05:38:04.018Z,-0.02
2022-10-14T05:43:12.340Z,0.14
2022-10-14T05:48:19.624Z,-0.01
2022-10-14T05:53:24.344Z,-0.17
2022-10-14T05:58:29.717Z,0.16
2022-10-14T06:03:51.526Z,0.27
2022-10-14T06:08:56.118Z,0.35
2022-10-14T06:13:58.464Z,0.45
2022-10-14T06:19:00.630Z,0.36
2022-10-14T06:24:03.937Z,0.55
2022-10-14T06:29:07.303Z,0.87
2022-10-14T06:34:09.728Z,0.68
2022-10-14T06:39:12.192Z,0.93
2022-10-14T06:44:15.784Z,0.92
2022-10-14T06:49:17.980Z,0.92
2022-10-14T06:54:20.258Z,1.18
2022-10-14T06:59:22.711Z,1.27
2022-10-14T07:04:28.072Z,0.98
2022-10-14T07:09:30.317Z,1.56
2022-10-14T07:14:32.510Z,1.50
2022-10-14T07:19:35.047Z,1.43
2022-10-14T07:24:37.272Z,0.94
2022-10-14T07:29:39.677Z,1.85
2022-10-14T07:34:41.978Z,2.14
2022-10-14T07:39:44.312Z,2.21
2022-10-14T07:44:46.640Z,2.78
2022-10-14T07:49:48.927Z,2.20
2022-10-14T07:54:51.093Z,3.24
2022-10-14T07:59:53.335Z,3.11
2022-10-14T08:05:04.105Z,3.39
2022-10-14T08:10:15.440Z,3.96
2022-10-14T08:15:17.745Z,3.91
2022-10-14T08:20:38.682Z,4.14
2022-10-14T08:25:59.593Z,4.00
2022-10-14T08:31:01.845Z,4.38
2022-10-14T08:36:04.343Z,4.41
2022-10-14T08:41:12.787Z,4.98
2022-10-14T08:46:21.653Z,4.86
2022-10-14T08:51:23.954Z,4.84
2022-10-14T08:56:26.363Z,5.23
2022-10-14T09:01:54.301Z,5.26
2022-10-14T09:06:57.003Z,5.23
2022-10-14T09:12:01.409Z,5.02
2022-10-14T09:17:08.123Z,5.49
2022-10-14T09:22:14.427Z,5.23
2022-10-14T09:27:22.358Z,4.96
2022-10-14T09:32:35.071Z,5.13
2022-10-14T09:37:57.045Z,5.11
2022-10-14T09:43:11.394Z,5.23
2022-10-14T09:48:39.909Z,5.09
2022-10-14T09:53:49.277Z,5.03
2022-10-14T09:59:20.054Z,4.99
2022-10-14T10:04:31.510Z,5.06
2022-10-14T10:09:34.603Z,4.71
2022-10-14T10:14:36.853Z,4.32
2022-10-14T10:19:43.300Z,4.73
2022-10-14T10:24:46.660Z,4.88
2022-10-14T10:29:48.942Z,5.07
2022-10-14T10:35:27.664Z,5.20
2022-10-14T10:40:47.969Z,5.23
2022-10-14T10:46:24.340Z,4.83
2022-10-14T10:51:29.842Z,5.18
2022-10-14T10:56:58.914Z,4.80
2022-10-14T11:02:04.485Z,5.16
2022-10-14T11:07:56.339Z,4.06
2022-10-14T11:13:29.387Z,4.59
2022-10-14T11:18:50.133Z,4.44
2022-10-14T11:24:23.533Z,4.27
2022-10-14T11:29:37.882Z,5.24
2022-10-14T11:34:58.295Z,4.49
2022-10-14T11:40:29.098Z,5.18
2022-10-14T11:45:54.398Z,5.30
2022-10-14T11:51:20.488Z,5.28
2022-10-14T11:56:46.364Z,5.39
2022-10-14T12:01:53.390Z,4.93
2022-10-14T12:07:10.621Z,4.95
2022-10-14T12:12:15.644Z,4.88
2022-10-14T12:17:23.638Z,5.06
2022-10-14T12:22:28.393Z,5.22
2022-10-14T12:27:31.223Z,5.52
2022-10-14T12:33:08.665Z,5.11
2022-10-14T12:38:13.402Z,5.57
2022-10-14T12:43:34.513Z,5.40
2022-10-14T12:48:38.911Z,5.35
2022-10-14T12:53:50.919Z,5.18
2022-10-14T12:59:01.514Z,5.71
2022-10-14T13:04:19.044Z,5.64
2022-10-14T13:09:32.559Z,5.57
2022-10-14T13:15:00.893Z,5.51
2022-10-14T13:20:04.760Z,5.02
2022-10-14T13:25:16.093Z,5.58
2022-10-14T13:30:33.890Z,5.77
2022-10-14T13:35:57.865Z,5.81
2022-10-14T13:41:00.087Z,5.48
2022-10-14T13:46:33.136Z,5.68
2022-10-14T13:51:56.402Z,5.66
2022-10-14T14:02:33.360Z,5.52
2022-10-14T14:08:13.521Z,5.49
2022-10-14T14:13:02.279Z,5.54
2022-10-14T14:18:04.578Z,5.25
2022-10-14T14:23:07.121Z,5.44
2022-10-14T14:28:31.975Z,5.64
2022-10-14T14:33:35.596Z,5.30
2022-10-14T14:38:39.250Z,5.59
2022-10-14T14:43:47.325Z,5.40
2022-10-14T14:48:56.699Z,5.19
2022-10-14T14:53:59.077Z,5.36
2022-10-14T14:59:16.689Z,5.26
2022-10-14T15:04:21.776Z,5.33
2022-10-14T15:09:38.092Z,5.19
2022-10-14T15:14:51.879Z,5.28
2022-10-14T15:19:54.911Z,5.15
2022-10-14T15:25:16.757Z,5.02
2022-10-14T15:30:37.515Z,5.39
2022-10-14T15:35:41.215Z,5.01
2022-10-14T15:40:44.967Z,5.22
2022-10-14T15:46:19.134Z,5.28
2022-10-14T15:51:26.170Z,5.17
2022-10-14T15:56:29.623Z,4.93
2022-10-14T16:01:34.785Z,5.08
2022-10-14T16:06:37.051Z,5.11
2022-10-14T16:11:39.389Z,5.22
2022-10-14T16:16:45.006Z,4.94
2022-10-14T16:21:49.982Z,4.95
2022-10-14T16:26:52.608Z,4.81
2022-10-14T16:31:55.585Z,4.91
2022-10-14T16:36:57.774Z,4.98
2022-10-14T16:42:00.096Z,4.97
2022-10-14T16:47:19.996Z,5.03
2022-10-14T16:52:22.778Z,5.05
2022-10-14T16:57:53.714Z,4.98
2022-10-14T17:02:55.957Z,5.02
2022-10-14T17:07:58.183Z,5.22
2022-10-14T17:13:02.220Z,5.14
2022-10-14T17:18:25.865Z,5.06
2022-10-14T17:23:31.872Z,5.05
2022-10-14T17:28:34.443Z,5.08
2022-10-14T17:33:55.381Z,4.99
2022-10-14T17:39:03.369Z,5.26
2022-10-14T17:44:05.687Z,3.85
2022-10-14T17:49:11.129Z,5.11
2022-10-14T17:54:13.742Z,4.88
2022-10-14T17:59:35.100Z,5.13
2022-10-14T18:04:38.655Z,5.04
2022-10-14T18:09:40.855Z,5.16
2022-10-14T18:14:43.293Z,4.82
2022-10-14T18:19:52.203Z,5.10
2022-10-14T18:24:54.908Z,4.86
2022-10-14T18:29:58.087Z,5.32
2022-10-14T18:35:02.409Z,4.80
2022-10-14T18:40:06.882Z,4.82
2022-10-14T18:45:11.348Z,5.34
2022-10-14T18:50:13.769Z,5.26
2022-10-14T18:55:16.479Z,5.24
2022-10-14T19:00:19.455Z,4.76
2022-10-14T19:05:21.992Z,4.98
2022-10-14T19:10:24.738Z,5.06
2022-10-14T19:15:51.368Z,5.22
2022-10-14T19:20:57.550Z,5.52
2022-10-14T19:26:01.320Z,5.22
2022-10-14T19:31:25.215Z,5.37
2022-10-14T19:36:27.597Z,5.19
2022-10-14T19:41:32.817Z,5.37
2022-10-14T19:46:36.523Z,5.30
2022-10-14T19:51:39.187Z,5.19
2022-10-14T19:56:41.623Z,4.98
2022-10-14T20:01:45.225Z,5.29
2022-10-14T20:06:47.673Z,5.13
2022-10-14T20:11:49.915Z,5.31
2022-10-14T20:16:55.093Z,5.29
2022-10-14T20:22:00.830Z,4.88
2022-10-14T20:27:04.588Z,5.23
2022-10-14T20:32:10.436Z,5.17
2022-10-14T20:37:33.817Z,5.04
2022-10-14T20:42:54.742Z,5.19
2022-10-14T20:47:57.974Z,5.16
2022-10-14T20:53:01.330Z,5.04
2022-10-14T20:58:03.840Z,5.16
2022-10-14T21:03:06.435Z,4.81
2022-10-14T21:08:08.725Z,4.39
2022-10-14T21:13:11.174Z,4.45
2022-10-14T21:18:32.554Z,4.90
2022-10-14T21:23:53.632Z,5.24
2022-10-14T21:28:56.381Z,5.07
2022-10-14T21:34:05.409Z,5.10
2022-10-14T21:39:10.542Z,5.07
2022-10-14T21:44:17.968Z,5.08
2022-10-14T21:49:20.282Z,5.00
2022-10-14T21:54:24.500Z,4.93
2022-10-14T21:59:45.259Z,5.08
2022-10-14T22:04:47.595Z,4.87
2022-10-14T22:09:49.874Z,4.80
2022-10-14T22:14:52.194Z,5.04
2022-10-14T22:19:54.421Z,4.92
2022-10-14T22:24:56.622Z,4.99
2022-10-14T22:30:17.839Z,4.88
2022-10-14T22:35:38.844Z,4.68
2022-10-14T22:41:04.627Z,5.13
2022-10-14T22:46:09.130Z,4.99
2022-10-14T22:51:13.934Z,4.88
2022-10-14T22:56:18.468Z,4.74
2022-10-14T23:01:22.506Z,4.97
2022-10-14T23:06:25.600Z,4.91
2022-10-14T23:11:28.704Z,4.97
2022-10-14T23:16:31.084Z,5.05
2022-10-14T23:21:37.699Z,4.78
2022-10-14T23:26:39.959Z,4.92
2022-10-14T23:31:42.482Z,4.87
2022-10-14T23:36:44.884Z,4.79
2022-10-14T23:41:47.183Z,4.95
2022-10-14T23:46:50.576Z,4.89
2022-10-14T23:51:52.945Z,4.76
2022-10-14T23:56:55.313Z,4.82
